Terminal Aerodrome Forecast
Issued by NWS Corpus Christi, TX

Home | Current Version | Previous Version | Text Only | Print | Product List | Glossary On
Versions: 1 2 3 4 5 6 7 8 9 10 11 12 13 14 15
000
FTUS44 KCRP 161100
TAFVCT
TAF
KVCT 161120Z 1612/1712 04004KT P6SM VCSH SCT015 BKN035 OVC100
      TEMPO 1612/1616 VRB15G25KT 5SM TSRA OVC025CB
     FM161600 11010KT P6SM VCTS BKN035CB
      TEMPO 1616/1620 VRB15G25KT 3SM TSRA BKN030CB
     FM162000 12010KT P6SM VCTS BKN035CB
      TEMPO 1620/1622 3SM TSRA BKN030CB
     FM170200 15005KT P6SM SCT025=

USA.gov is the U.S. government's official web portal to all federal, state and local government web resources and services.